sensor_id;sensor_type;location;lat;lon;timestamp;P1;durP1;ratioP1;P2;durP2;ratioP2
9222;SDS011;7557;51.698;3.942;2023-04-06T00:01:27;36.43;;;28.23;;
9222;SDS011;7557;51.698;3.942;2023-04-06T00:03:54;37.03;;;27.50;;
9222;SDS011;7557;51.698;3.942;2023-04-06T00:06:22;37.17;;;28.67;;
9222;SDS011;7557;51.698;3.942;2023-04-06T00:08:51;34.90;;;27.07;;
9222;SDS011;7557;51.698;3.942;2023-04-06T00:11:19;34.77;;;29.70;;
9222;SDS011;7557;51.698;3.942;2023-04-06T00:13:46;33.23;;;28.43;;
9222;SDS011;7557;51.698;3.942;2023-04-06T00:16:14;35.67;;;29.00;;
9222;SDS011;7557;51.698;3.942;2023-04-06T00:18:42;36.60;;;28.13;;
9222;SDS011;7557;51.698;3.942;2023-04-06T00:21:11;34.70;;;27.70;;
9222;SDS011;7557;51.698;3.942;2023-04-06T00:23:39;35.13;;;28.83;;
9222;SDS011;7557;51.698;3.942;2023-04-06T00:26:09;36.23;;;28.13;;
9222;SDS011;7557;51.698;3.942;2023-04-06T00:28:37;36.53;;;28.13;;
9222;SDS011;7557;51.698;3.942;2023-04-06T00:31:04;35.27;;;27.70;;
9222;SDS011;7557;51.698;3.942;2023-04-06T00:33:32;33.13;;;27.90;;
9222;SDS011;7557;51.698;3.942;2023-04-06T00:35:59;32.17;;;26.03;;
9222;SDS011;7557;51.698;3.942;2023-04-06T00:38:27;35.37;;;26.73;;
9222;SDS011;7557;51.698;3.942;2023-04-06T00:40:55;33.67;;;26.03;;
9222;SDS011;7557;51.698;3.942;2023-04-06T00:43:24;31.67;;;25.63;;
9222;SDS011;7557;51.698;3.942;2023-04-06T00:45:51;30.90;;;24.03;;
9222;SDS011;7557;51.698;3.942;2023-04-06T00:48:20;28.60;;;24.40;;
9222;SDS011;7557;51.698;3.942;2023-04-06T00:50:48;27.10;;;22.23;;
9222;SDS011;7557;51.698;3.942;2023-04-06T00:53:15;28.10;;;22.93;;
9222;SDS011;7557;51.698;3.942;2023-04-06T00:55:43;28.40;;;22.93;;
9222;SDS011;7557;51.698;3.942;2023-04-06T00:58:10;26.03;;;21.67;;
9222;SDS011;7557;51.698;3.942;2023-04-06T01:00:39;26.90;;;21.57;;
9222;SDS011;7557;51.698;3.942;2023-04-06T01:03:07;26.57;;;21.27;;
9222;SDS011;7557;51.698;3.942;2023-04-06T01:05:35;27.30;;;21.90;;
9222;SDS011;7557;51.698;3.942;2023-04-06T01:08:05;29.37;;;21.17;;
9222;SDS011;7557;51.698;3.942;2023-04-06T01:10:33;26.57;;;20.77;;
9222;SDS011;7557;51.698;3.942;2023-04-06T01:13:01;24.40;;;19.77;;
9222;SDS011;7557;51.698;3.942;2023-04-06T01:15:28;25.37;;;18.77;;
9222;SDS011;7557;51.698;3.942;2023-04-06T01:17:58;25.27;;;19.90;;
9222;SDS011;7557;51.698;3.942;2023-04-06T01:20:30;27.47;;;19.47;;
9222;SDS011;7557;51.698;3.942;2023-04-06T01:22:59;24.63;;;19.83;;
9222;SDS011;7557;51.698;3.942;2023-04-06T01:25:27;27.17;;;19.23;;
9222;SDS011;7557;51.698;3.942;2023-04-06T01:27:54;25.07;;;19.37;;
9222;SDS011;7557;51.698;3.942;2023-04-06T01:30:22;26.27;;;19.93;;
9222;SDS011;7557;51.698;3.942;2023-04-06T01:32:49;24.23;;;19.50;;
9222;SDS011;7557;51.698;3.942;2023-04-06T01:35:17;30.73;;;20.47;;
9222;SDS011;7557;51.698;3.942;2023-04-06T01:37:45;25.73;;;19.70;;
9222;SDS011;7557;51.698;3.942;2023-04-06T01:40:14;26.63;;;19.93;;
9222;SDS011;7557;51.698;3.942;2023-04-06T01:42:42;26.33;;;18.77;;
9222;SDS011;7557;51.698;3.942;2023-04-06T01:45:09;25.27;;;19.57;;
9222;SDS011;7557;51.698;3.942;2023-04-06T01:47:37;25.63;;;18.87;;
9222;SDS011;7557;51.698;3.942;2023-04-06T01:50:05;23.03;;;19.53;;
9222;SDS011;7557;51.698;3.942;2023-04-06T01:52:33;25.17;;;19.00;;
9222;SDS011;7557;51.698;3.942;2023-04-06T01:55:00;27.47;;;19.60;;
9222;SDS011;7557;51.698;3.942;2023-04-06T01:57:29;24.13;;;18.20;;
9222;SDS011;7557;51.698;3.942;2023-04-06T01:59:57;25.83;;;17.87;;
9222;SDS011;7557;51.698;3.942;2023-04-06T02:02:25;24.10;;;17.33;;
9222;SDS011;7557;51.698;3.942;2023-04-06T02:04:52;21.90;;;17.33;;
9222;SDS011;7557;51.698;3.942;2023-04-06T02:07:20;26.20;;;18.57;;
9222;SDS011;7557;51.698;3.942;2023-04-06T02:09:47;22.30;;;17.83;;
9222;SDS011;7557;51.698;3.942;2023-04-06T02:12:15;25.30;;;18.90;;
9222;SDS011;7557;51.698;3.942;2023-04-06T02:14:43;26.00;;;18.30;;
9222;SDS011;7557;51.698;3.942;2023-04-06T02:17:11;25.50;;;17.97;;
9222;SDS011;7557;51.698;3.942;2023-04-06T02:19:38;25.77;;;17.97;;
9222;SDS011;7557;51.698;3.942;2023-04-06T02:22:06;28.40;;;19.27;;
9222;SDS011;7557;51.698;3.942;2023-04-06T02:24:36;28.67;;;19.03;;
9222;SDS011;7557;51.698;3.942;2023-04-06T02:27:04;25.43;;;18.83;;
9222;SDS011;7557;51.698;3.942;2023-04-06T02:29:32;27.17;;;19.27;;
9222;SDS011;7557;51.698;3.942;2023-04-06T02:32:01;26.63;;;19.27;;
9222;SDS011;7557;51.698;3.942;2023-04-06T02:34:28;27.33;;;19.67;;
9222;SDS011;7557;51.698;3.942;2023-04-06T02:36:56;27.80;;;19.97;;
9222;SDS011;7557;51.698;3.942;2023-04-06T02:39:23;29.57;;;21.87;;
9222;SDS011;7557;51.698;3.942;2023-04-06T02:41:51;30.33;;;21.87;;
9222;SDS011;7557;51.698;3.942;2023-04-06T02:44:18;30.30;;;22.43;;
9222;SDS011;7557;51.698;3.942;2023-04-06T02:46:46;30.87;;;22.80;;
9222;SDS011;7557;51.698;3.942;2023-04-06T02:49:15;32.33;;;22.83;;
9222;SDS011;7557;51.698;3.942;2023-04-06T02:51:42;31.60;;;23.67;;
9222;SDS011;7557;51.698;3.942;2023-04-06T02:54:10;27.13;;;22.43;;
9222;SDS011;7557;51.698;3.942;2023-04-06T02:56:37;30.20;;;23.70;;
9222;SDS011;7557;51.698;3.942;2023-04-06T02:59:05;38.27;;;28.00;;
9222;SDS011;7557;51.698;3.942;2023-04-06T03:01:32;37.20;;;26.93;;
9222;SDS011;7557;51.698;3.942;2023-04-06T03:04:01;38.00;;;28.37;;
9222;SDS011;7557;51.698;3.942;2023-04-06T03:06:30;41.20;;;29.90;;
9222;SDS011;7557;51.698;3.942;2023-04-06T03:08:57;40.70;;;30.20;;
9222;SDS011;7557;51.698;3.942;2023-04-06T03:11:28;39.60;;;30.00;;
9222;SDS011;7557;51.698;3.942;2023-04-06T03:13:55;43.20;;;32.33;;
9222;SDS011;7557;51.698;3.942;2023-04-06T03:16:24;42.43;;;32.67;;
9222;SDS011;7557;51.698;3.942;2023-04-06T03:18:51;44.23;;;33.13;;
9222;SDS011;7557;51.698;3.942;2023-04-06T03:21:19;45.40;;;33.43;;
9222;SDS011;7557;51.698;3.942;2023-04-06T03:23:48;46.33;;;32.83;;
9222;SDS011;7557;51.698;3.942;2023-04-06T03:26:16;43.83;;;33.43;;
9222;SDS011;7557;51.698;3.942;2023-04-06T03:28:43;46.93;;;33.73;;
9222;SDS011;7557;51.698;3.942;2023-04-06T03:31:11;44.60;;;33.87;;
9222;SDS011;7557;51.698;3.942;2023-04-06T03:33:38;47.77;;;34.00;;
9222;SDS011;7557;51.698;3.942;2023-04-06T03:36:06;47.37;;;34.30;;
9222;SDS011;7557;51.698;3.942;2023-04-06T03:38:34;50.87;;;35.00;;
9222;SDS011;7557;51.698;3.942;2023-04-06T03:41:03;48.23;;;35.63;;
9222;SDS011;7557;51.698;3.942;2023-04-06T03:43:30;51.83;;;36.23;;
9222;SDS011;7557;51.698;3.942;2023-04-06T03:45:57;52.53;;;38.10;;
9222;SDS011;7557;51.698;3.942;2023-04-06T03:48:25;58.90;;;38.87;;
9222;SDS011;7557;51.698;3.942;2023-04-06T03:50:52;58.17;;;38.10;;
9222;SDS011;7557;51.698;3.942;2023-04-06T03:53:20;53.03;;;38.43;;
9222;SDS011;7557;51.698;3.942;2023-04-06T03:55:47;54.43;;;38.93;;
9222;SDS011;7557;51.698;3.942;2023-04-06T03:58:17;59.90;;;40.67;;
9222;SDS011;7557;51.698;3.942;2023-04-06T04:00:44;58.67;;;39.80;;
9222;SDS011;7557;51.698;3.942;2023-04-06T04:03:12;64.13;;;41.90;;
9222;SDS011;7557;51.698;3.942;2023-04-06T04:05:39;61.87;;;41.70;;
9222;SDS011;7557;51.698;3.942;2023-04-06T04:08:08;56.47;;;39.67;;
9222;SDS011;7557;51.698;3.942;2023-04-06T04:10:35;57.90;;;37.73;;
9222;SDS011;7557;51.698;3.942;2023-04-06T04:13:03;47.47;;;33.47;;
9222;SDS011;7557;51.698;3.942;2023-04-06T04:15:32;47.30;;;32.13;;
9222;SDS011;7557;51.698;3.942;2023-04-06T04:18:00;41.70;;;29.37;;
9222;SDS011;7557;51.698;3.942;2023-04-06T04:20:27;39.00;;;27.53;;
9222;SDS011;7557;51.698;3.942;2023-04-06T04:22:55;43.20;;;28.50;;
9222;SDS011;7557;51.698;3.942;2023-04-06T04:25:22;44.37;;;26.40;;
9222;SDS011;7557;51.698;3.942;2023-04-06T04:27:50;35.23;;;25.80;;
9222;SDS011;7557;51.698;3.942;2023-04-06T04:30:18;40.10;;;28.07;;
9222;SDS011;7557;51.698;3.942;2023-04-06T04:32:47;39.77;;;28.13;;
9222;SDS011;7557;51.698;3.942;2023-04-06T04:35:15;41.03;;;27.03;;
9222;SDS011;7557;51.698;3.942;2023-04-06T04:37:42;40.97;;;29.37;;
9222;SDS011;7557;51.698;3.942;2023-04-06T04:40:10;43.60;;;30.00;;
9222;SDS011;7557;51.698;3.942;2023-04-06T04:42:38;43.90;;;30.10;;
9222;SDS011;7557;51.698;3.942;2023-04-06T04:45:06;45.30;;;31.17;;
9222;SDS011;7557;51.698;3.942;2023-04-06T04:47:34;43.07;;;30.00;;
9222;SDS011;7557;51.698;3.942;2023-04-06T04:50:03;43.23;;;30.90;;
9222;SDS011;7557;51.698;3.942;2023-04-06T04:52:31;43.33;;;31.50;;
9222;SDS011;7557;51.698;3.942;2023-04-06T04:54:58;45.23;;;33.73;;
9222;SDS011;7557;51.698;3.942;2023-04-06T04:57:26;45.67;;;31.97;;
9222;SDS011;7557;51.698;3.942;2023-04-06T04:59:53;44.77;;;31.80;;
9222;SDS011;7557;51.698;3.942;2023-04-06T05:02:21;45.83;;;32.60;;
9222;SDS011;7557;51.698;3.942;2023-04-06T05:04:49;46.40;;;32.03;;
9222;SDS011;7557;51.698;3.942;2023-04-06T05:07:18;42.60;;;31.47;;
9222;SDS011;7557;51.698;3.942;2023-04-06T05:09:46;44.47;;;31.97;;
9222;SDS011;7557;51.698;3.942;2023-04-06T05:12:13;44.60;;;31.67;;
9222;SDS011;7557;51.698;3.942;2023-04-06T05:14:41;42.10;;;30.57;;
9222;SDS011;7557;51.698;3.942;2023-04-06T05:17:08;39.70;;;30.53;;
9222;SDS011;7557;51.698;3.942;2023-04-06T05:19:36;49.90;;;31.93;;
9222;SDS011;7557;51.698;3.942;2023-04-06T05:22:03;44.83;;;29.57;;
9222;SDS011;7557;51.698;3.942;2023-04-06T05:24:33;41.80;;;30.20;;
9222;SDS011;7557;51.698;3.942;2023-04-06T05:27:01;39.67;;;30.80;;
9222;SDS011;7557;51.698;3.942;2023-04-06T05:29:29;41.37;;;31.27;;
9222;SDS011;7557;51.698;3.942;2023-04-06T05:31:56;45.30;;;31.90;;
9222;SDS011;7557;51.698;3.942;2023-04-06T05:34:24;48.83;;;31.67;;
9222;SDS011;7557;51.698;3.942;2023-04-06T05:36:51;40.60;;;29.80;;
9222;SDS011;7557;51.698;3.942;2023-04-06T05:39:19;38.77;;;29.53;;
9222;SDS011;7557;51.698;3.942;2023-04-06T05:41:51;41.90;;;30.47;;
9222;SDS011;7557;51.698;3.942;2023-04-06T05:44:19;41.43;;;29.43;;
9222;SDS011;7557;51.698;3.942;2023-04-06T05:46:46;42.47;;;30.43;;
9222;SDS011;7557;51.698;3.942;2023-04-06T05:49:14;43.23;;;31.30;;
9222;SDS011;7557;51.698;3.942;2023-04-06T05:51:44;45.77;;;30.60;;
9222;SDS011;7557;51.698;3.942;2023-04-06T05:54:11;41.03;;;29.47;;
9222;SDS011;7557;51.698;3.942;2023-04-06T05:56:39;42.37;;;28.90;;
9222;SDS011;7557;51.698;3.942;2023-04-06T05:59:08;39.27;;;30.30;;
9222;SDS011;7557;51.698;3.942;2023-04-06T06:01:35;39.67;;;29.10;;
9222;SDS011;7557;51.698;3.942;2023-04-06T06:04:04;40.53;;;30.10;;
9222;SDS011;7557;51.698;3.942;2023-04-06T06:06:32;40.13;;;29.80;;
9222;SDS011;7557;51.698;3.942;2023-04-06T06:09:03;45.73;;;30.27;;
9222;SDS011;7557;51.698;3.942;2023-04-06T06:11:30;36.83;;;28.57;;
9222;SDS011;7557;51.698;3.942;2023-04-06T06:13:58;37.70;;;28.27;;
9222;SDS011;7557;51.698;3.942;2023-04-06T06:16:27;40.30;;;28.50;;
9222;SDS011;7557;51.698;3.942;2023-04-06T06:18:54;38.67;;;29.47;;
9222;SDS011;7557;51.698;3.942;2023-04-06T06:21:22;44.10;;;28.33;;
9222;SDS011;7557;51.698;3.942;2023-04-06T06:23:50;36.50;;;28.20;;
9222;SDS011;7557;51.698;3.942;2023-04-06T06:26:19;35.03;;;27.00;;
9222;SDS011;7557;51.698;3.942;2023-04-06T06:28:46;37.60;;;28.83;;
9222;SDS011;7557;51.698;3.942;2023-04-06T06:31:14;39.83;;;26.53;;
9222;SDS011;7557;51.698;3.942;2023-04-06T06:33:47;31.33;;;25.13;;
9222;SDS011;7557;51.698;3.942;2023-04-06T06:36:16;29.07;;;21.70;;
9222;SDS011;7557;51.698;3.942;2023-04-06T06:38:44;24.97;;;19.40;;
9222;SDS011;7557;51.698;3.942;2023-04-06T06:41:11;24.07;;;19.20;;
9222;SDS011;7557;51.698;3.942;2023-04-06T06:43:38;22.93;;;17.43;;
9222;SDS011;7557;51.698;3.942;2023-04-06T06:46:06;22.87;;;18.20;;
9222;SDS011;7557;51.698;3.942;2023-04-06T06:48:33;23.60;;;19.17;;
9222;SDS011;7557;51.698;3.942;2023-04-06T06:51:03;25.53;;;20.10;;
9222;SDS011;7557;51.698;3.942;2023-04-06T06:53:30;21.20;;;16.87;;
9222;SDS011;7557;51.698;3.942;2023-04-06T06:55:58;19.03;;;14.43;;
9222;SDS011;7557;51.698;3.942;2023-04-06T06:58:25;18.50;;;14.63;;
9222;SDS011;7557;51.698;3.942;2023-04-06T07:00:55;18.40;;;14.37;;
9222;SDS011;7557;51.698;3.942;2023-04-06T07:03:23;17.00;;;14.50;;
9222;SDS011;7557;51.698;3.942;2023-04-06T07:05:51;16.07;;;13.13;;
9222;SDS011;7557;51.698;3.942;2023-04-06T07:08:20;16.17;;;13.13;;
9222;SDS011;7557;51.698;3.942;2023-04-06T07:10:49;14.17;;;11.80;;
9222;SDS011;7557;51.698;3.942;2023-04-06T07:13:18;13.17;;;11.80;;
9222;SDS011;7557;51.698;3.942;2023-04-06T07:15:48;14.10;;;12.47;;
9222;SDS011;7557;51.698;3.942;2023-04-06T07:18:15;12.87;;;10.07;;
9222;SDS011;7557;51.698;3.942;2023-04-06T07:20:43;12.10;;;10.67;;
9222;SDS011;7557;51.698;3.942;2023-04-06T07:23:11;13.60;;;11.27;;
9222;SDS011;7557;51.698;3.942;2023-04-06T07:25:40;10.93;;;9.27;;
9222;SDS011;7557;51.698;3.942;2023-04-06T07:28:08;11.27;;;8.63;;
9222;SDS011;7557;51.698;3.942;2023-04-06T07:30:36;9.57;;;8.63;;
9222;SDS011;7557;51.698;3.942;2023-04-06T07:33:04;9.57;;;8.67;;
9222;SDS011;7557;51.698;3.942;2023-04-06T07:35:33;10.00;;;7.93;;
9222;SDS011;7557;51.698;3.942;2023-04-06T07:38:02;10.37;;;9.27;;
9222;SDS011;7557;51.698;3.942;2023-04-06T07:40:29;11.97;;;9.93;;
9222;SDS011;7557;51.698;3.942;2023-04-06T07:42:59;17.67;;;10.33;;
9222;SDS011;7557;51.698;3.942;2023-04-06T07:45:27;21.70;;;12.00;;
9222;SDS011;7557;51.698;3.942;2023-04-06T07:47:54;17.17;;;11.57;;
9222;SDS011;7557;51.698;3.942;2023-04-06T07:50:22;21.60;;;12.57;;
9222;SDS011;7557;51.698;3.942;2023-04-06T07:52:50;27.07;;;13.03;;
9222;SDS011;7557;51.698;3.942;2023-04-06T07:55:17;18.57;;;10.60;;
9222;SDS011;7557;51.698;3.942;2023-04-06T07:57:44;22.57;;;12.40;;
9222;SDS011;7557;51.698;3.942;2023-04-06T08:00:15;14.10;;;10.07;;
9222;SDS011;7557;51.698;3.942;2023-04-06T08:02:43;12.77;;;8.87;;
9222;SDS011;7557;51.698;3.942;2023-04-06T08:05:11;9.77;;;8.20;;
9222;SDS011;7557;51.698;3.942;2023-04-06T08:07:38;15.00;;;9.97;;
9222;SDS011;7557;51.698;3.942;2023-04-06T08:10:07;10.83;;;8.90;;
9222;SDS011;7557;51.698;3.942;2023-04-06T08:12:34;12.20;;;10.10;;
9222;SDS011;7557;51.698;3.942;2023-04-06T08:15:02;11.70;;;9.23;;
9222;SDS011;7557;51.698;3.942;2023-04-06T08:17:34;10.97;;;9.33;;
9222;SDS011;7557;51.698;3.942;2023-04-06T08:20:01;13.20;;;9.10;;
9222;SDS011;7557;51.698;3.942;2023-04-06T08:22:29;15.00;;;10.23;;
9222;SDS011;7557;51.698;3.942;2023-04-06T08:24:57;11.63;;;9.17;;
9222;SDS011;7557;51.698;3.942;2023-04-06T08:27:24;13.83;;;10.70;;
9222;SDS011;7557;51.698;3.942;2023-04-06T08:29:52;11.40;;;9.20;;
9222;SDS011;7557;51.698;3.942;2023-04-06T08:32:19;15.40;;;9.40;;
9222;SDS011;7557;51.698;3.942;2023-04-06T08:34:48;9.97;;;8.63;;
9222;SDS011;7557;51.698;3.942;2023-04-06T08:37:19;15.17;;;9.70;;
9222;SDS011;7557;51.698;3.942;2023-04-06T08:39:46;10.57;;;9.30;;
9222;SDS011;7557;51.698;3.942;2023-04-06T08:42:16;11.90;;;8.83;;
9222;SDS011;7557;51.698;3.942;2023-04-06T08:44:47;11.07;;;8.33;;
9222;SDS011;7557;51.698;3.942;2023-04-06T08:47:16;11.43;;;9.13;;
9222;SDS011;7557;51.698;3.942;2023-04-06T08:49:43;11.57;;;9.57;;
9222;SDS011;7557;51.698;3.942;2023-04-06T08:52:13;12.47;;;9.63;;
9222;SDS011;7557;51.698;3.942;2023-04-06T08:54:44;12.47;;;9.43;;
9222;SDS011;7557;51.698;3.942;2023-04-06T08:57:11;11.57;;;8.47;;
9222;SDS011;7557;51.698;3.942;2023-04-06T08:59:40;16.57;;;9.77;;
9222;SDS011;7557;51.698;3.942;2023-04-06T09:02:07;10.33;;;8.47;;
9222;SDS011;7557;51.698;3.942;2023-04-06T09:04:40;9.67;;;8.37;;
9222;SDS011;7557;51.698;3.942;2023-04-06T09:07:08;13.87;;;9.27;;
9222;SDS011;7557;51.698;3.942;2023-04-06T09:09:37;12.30;;;9.50;;
9222;SDS011;7557;51.698;3.942;2023-04-06T09:12:08;12.20;;;10.30;;
9222;SDS011;7557;51.698;3.942;2023-04-06T09:14:37;11.57;;;9.00;;
9222;SDS011;7557;51.698;3.942;2023-04-06T09:17:06;13.90;;;9.53;;
9222;SDS011;7557;51.698;3.942;2023-04-06T09:19:33;13.67;;;9.80;;
9222;SDS011;7557;51.698;3.942;2023-04-06T09:22:11;17.60;;;11.63;;
9222;SDS011;7557;51.698;3.942;2023-04-06T09:24:44;15.47;;;10.20;;
9222;SDS011;7557;51.698;3.942;2023-04-06T09:27:13;12.23;;;10.53;;
9222;SDS011;7557;51.698;3.942;2023-04-06T09:29:40;13.67;;;11.30;;
9222;SDS011;7557;51.698;3.942;2023-04-06T09:32:09;14.60;;;11.57;;
9222;SDS011;7557;51.698;3.942;2023-04-06T09:34:37;19.50;;;12.73;;
9222;SDS011;7557;51.698;3.942;2023-04-06T09:37:14;16.73;;;11.97;;
9222;SDS011;7557;51.698;3.942;2023-04-06T09:39:43;21.03;;;12.63;;
9222;SDS011;7557;51.698;3.942;2023-04-06T09:42:22;17.20;;;12.23;;
9222;SDS011;7557;51.698;3.942;2023-04-06T09:44:50;17.97;;;12.10;;
9222;SDS011;7557;51.698;3.942;2023-04-06T09:47:19;16.83;;;12.53;;
9222;SDS011;7557;51.698;3.942;2023-04-06T09:49:49;15.83;;;12.83;;
9222;SDS011;7557;51.698;3.942;2023-04-06T09:52:19;20.87;;;14.30;;
9222;SDS011;7557;51.698;3.942;2023-04-06T09:54:50;15.93;;;12.73;;
9222;SDS011;7557;51.698;3.942;2023-04-06T09:57:20;18.43;;;13.53;;
9222;SDS011;7557;51.698;3.942;2023-04-06T09:59:54;17.27;;;13.27;;
9222;SDS011;7557;51.698;3.942;2023-04-06T10:02:30;17.03;;;14.40;;
9222;SDS011;7557;51.698;3.942;2023-04-06T10:05:05;20.60;;;15.03;;
9222;SDS011;7557;51.698;3.942;2023-04-06T10:07:36;17.27;;;13.97;;
9222;SDS011;7557;51.698;3.942;2023-04-06T10:10:06;18.73;;;14.83;;
9222;SDS011;7557;51.698;3.942;2023-04-06T10:12:35;19.33;;;14.17;;
9222;SDS011;7557;51.698;3.942;2023-04-06T10:15:04;21.10;;;14.67;;
9222;SDS011;7557;51.698;3.942;2023-04-06T10:17:32;16.03;;;13.73;;
9222;SDS011;7557;51.698;3.942;2023-04-06T10:20:01;18.50;;;14.43;;
9222;SDS011;7557;51.698;3.942;2023-04-06T10:22:34;16.43;;;14.60;;
9222;SDS011;7557;51.698;3.942;2023-04-06T10:25:09;17.03;;;14.03;;
9222;SDS011;7557;51.698;3.942;2023-04-06T10:27:36;19.10;;;12.80;;
9222;SDS011;7557;51.698;3.942;2023-04-06T10:30:04;16.10;;;13.27;;
9222;SDS011;7557;51.698;3.942;2023-04-06T10:32:36;15.47;;;13.73;;
9222;SDS011;7557;51.698;3.942;2023-04-06T10:35:08;14.33;;;12.73;;
9222;SDS011;7557;51.698;3.942;2023-04-06T10:37:46;14.80;;;13.20;;
9222;SDS011;7557;51.698;3.942;2023-04-06T10:40:24;16.60;;;14.23;;
9222;SDS011;7557;51.698;3.942;2023-04-06T10:42:53;14.93;;;12.50;;
9222;SDS011;7557;51.698;3.942;2023-04-06T10:45:22;17.80;;;13.30;;
9222;SDS011;7557;51.698;3.942;2023-04-06T10:47:52;17.23;;;14.27;;
9222;SDS011;7557;51.698;3.942;2023-04-06T10:50:20;17.17;;;14.43;;
9222;SDS011;7557;51.698;3.942;2023-04-06T10:52:58;15.37;;;12.63;;
9222;SDS011;7557;51.698;3.942;2023-04-06T10:55:28;17.73;;;14.07;;
9222;SDS011;7557;51.698;3.942;2023-04-06T10:57:57;16.77;;;14.30;;
9222;SDS011;7557;51.698;3.942;2023-04-06T11:00:25;16.93;;;14.00;;
9222;SDS011;7557;51.698;3.942;2023-04-06T11:02:58;16.63;;;14.13;;
9222;SDS011;7557;51.698;3.942;2023-04-06T11:05:27;15.77;;;13.53;;
9222;SDS011;7557;51.698;3.942;2023-04-06T11:07:55;18.10;;;14.30;;
9222;SDS011;7557;51.698;3.942;2023-04-06T11:10:23;14.93;;;12.87;;
9222;SDS011;7557;51.698;3.942;2023-04-06T11:12:54;15.87;;;13.13;;
9222;SDS011;7557;51.698;3.942;2023-04-06T11:15:22;15.33;;;13.40;;
9222;SDS011;7557;51.698;3.942;2023-04-06T11:17:50;15.23;;;12.37;;
9222;SDS011;7557;51.698;3.942;2023-04-06T11:20:17;12.33;;;11.10;;
9222;SDS011;7557;51.698;3.942;2023-04-06T11:22:48;12.80;;;11.40;;
9222;SDS011;7557;51.698;3.942;2023-04-06T11:25:17;12.80;;;11.40;;
9222;SDS011;7557;51.698;3.942;2023-04-06T11:27:45;13.73;;;11.20;;
9222;SDS011;7557;51.698;3.942;2023-04-06T11:30:15;11.40;;;10.23;;
9222;SDS011;7557;51.698;3.942;2023-04-06T11:32:43;12.20;;;11.00;;
9222;SDS011;7557;51.698;3.942;2023-04-06T11:35:20;12.33;;;10.77;;
9222;SDS011;7557;51.698;3.942;2023-04-06T11:37:48;11.23;;;10.13;;
9222;SDS011;7557;51.698;3.942;2023-04-06T11:40:20;11.47;;;10.37;;
9222;SDS011;7557;51.698;3.942;2023-04-06T11:42:53;13.77;;;11.37;;
9222;SDS011;7557;51.698;3.942;2023-04-06T11:45:23;11.17;;;10.10;;
9222;SDS011;7557;51.698;3.942;2023-04-06T11:47:57;12.57;;;10.13;;
9222;SDS011;7557;51.698;3.942;2023-04-06T11:50:31;12.70;;;11.40;;
9222;SDS011;7557;51.698;3.942;2023-04-06T11:53:00;12.67;;;11.20;;
9222;SDS011;7557;51.698;3.942;2023-04-06T11:55:29;10.93;;;9.93;;
9222;SDS011;7557;51.698;3.942;2023-04-06T11:58:03;11.27;;;9.80;;
9222;SDS011;7557;51.698;3.942;2023-04-06T12:00:32;9.57;;;8.67;;
9222;SDS011;7557;51.698;3.942;2023-04-06T12:03:02;9.83;;;8.93;;
9222;SDS011;7557;51.698;3.942;2023-04-06T12:05:29;10.27;;;9.37;;
9222;SDS011;7557;51.698;3.942;2023-04-06T12:07:57;10.70;;;9.70;;
9222;SDS011;7557;51.698;3.942;2023-04-06T12:10:25;10.80;;;9.70;;
9222;SDS011;7557;51.698;3.942;2023-04-06T12:12:52;10.73;;;9.67;;
9222;SDS011;7557;51.698;3.942;2023-04-06T12:15:20;9.73;;;8.73;;
9222;SDS011;7557;51.698;3.942;2023-04-06T12:17:49;10.07;;;9.17;;
9222;SDS011;7557;51.698;3.942;2023-04-06T12:20:17;10.43;;;9.23;;
9222;SDS011;7557;51.698;3.942;2023-04-06T12:22:44;9.90;;;9.00;;
9222;SDS011;7557;51.698;3.942;2023-04-06T12:25:12;10.03;;;9.10;;
9222;SDS011;7557;51.698;3.942;2023-04-06T12:27:40;11.37;;;9.20;;
9222;SDS011;7557;51.698;3.942;2023-04-06T12:30:08;11.80;;;10.60;;
9222;SDS011;7557;51.698;3.942;2023-04-06T12:32:36;11.80;;;10.57;;
9222;SDS011;7557;51.698;3.942;2023-04-06T12:35:05;10.97;;;9.60;;
9222;SDS011;7557;51.698;3.942;2023-04-06T12:37:34;11.03;;;9.93;;
9222;SDS011;7557;51.698;3.942;2023-04-06T12:40:02;13.70;;;11.80;;
9222;SDS011;7557;51.698;3.942;2023-04-06T12:42:29;12.90;;;11.57;;
9222;SDS011;7557;51.698;3.942;2023-04-06T12:44:57;13.37;;;11.80;;
9222;SDS011;7557;51.698;3.942;2023-04-06T12:47:27;13.27;;;11.47;;
9222;SDS011;7557;51.698;3.942;2023-04-06T12:49:55;13.40;;;12.00;;
9222;SDS011;7557;51.698;3.942;2023-04-06T12:52:24;14.67;;;13.17;;
9222;SDS011;7557;51.698;3.942;2023-04-06T12:54:55;14.87;;;12.87;;
9222;SDS011;7557;51.698;3.942;2023-04-06T12:57:24;17.13;;;14.13;;
9222;SDS011;7557;51.698;3.942;2023-04-06T12:59:52;18.37;;;13.13;;
9222;SDS011;7557;51.698;3.942;2023-04-06T13:02:19;15.57;;;13.10;;
9222;SDS011;7557;51.698;3.942;2023-04-06T13:04:48;13.60;;;12.17;;
9222;SDS011;7557;51.698;3.942;2023-04-06T13:07:16;14.63;;;12.67;;
9222;SDS011;7557;51.698;3.942;2023-04-06T13:09:45;13.97;;;11.50;;
9222;SDS011;7557;51.698;3.942;2023-04-06T13:12:14;13.43;;;12.00;;
9222;SDS011;7557;51.698;3.942;2023-04-06T13:14:42;12.77;;;11.40;;
9222;SDS011;7557;51.698;3.942;2023-04-06T13:17:09;13.90;;;12.40;;
9222;SDS011;7557;51.698;3.942;2023-04-06T13:19:37;13.13;;;11.60;;
9222;SDS011;7557;51.698;3.942;2023-04-06T13:22:05;12.00;;;10.80;;
9222;SDS011;7557;51.698;3.942;2023-04-06T13:24:32;11.33;;;10.13;;
9222;SDS011;7557;51.698;3.942;2023-04-06T13:27:02;10.87;;;9.87;;
9222;SDS011;7557;51.698;3.942;2023-04-06T13:29:29;10.03;;;9.13;;
9222;SDS011;7557;51.698;3.942;2023-04-06T13:31:57;10.83;;;9.80;;
9222;SDS011;7557;51.698;3.942;2023-04-06T13:34:25;10.43;;;9.43;;
9222;SDS011;7557;51.698;3.942;2023-04-06T13:36:53;13.43;;;10.93;;
9222;SDS011;7557;51.698;3.942;2023-04-06T13:39:21;12.03;;;10.93;;
9222;SDS011;7557;51.698;3.942;2023-04-06T13:41:48;11.00;;;10.00;;
9222;SDS011;7557;51.698;3.942;2023-04-06T13:44:17;11.57;;;10.47;;
9222;SDS011;7557;51.698;3.942;2023-04-06T13:46:47;12.43;;;11.20;;
9222;SDS011;7557;51.698;3.942;2023-04-06T13:49:15;12.13;;;11.13;;
9222;SDS011;7557;51.698;3.942;2023-04-06T13:51:45;11.67;;;10.57;;
9222;SDS011;7557;51.698;3.942;2023-04-06T13:54:12;12.33;;;11.20;;
9222;SDS011;7557;51.698;3.942;2023-04-06T13:56:40;11.87;;;10.83;;
9222;SDS011;7557;51.698;3.942;2023-04-06T13:59:07;13.67;;;12.27;;
9222;SDS011;7557;51.698;3.942;2023-04-06T14:01:36;15.03;;;13.63;;
9222;SDS011;7557;51.698;3.942;2023-04-06T14:04:04;12.90;;;11.80;;
9222;SDS011;7557;51.698;3.942;2023-04-06T14:06:31;14.60;;;13.23;;
9222;SDS011;7557;51.698;3.942;2023-04-06T14:09:02;14.53;;;13.17;;
9222;SDS011;7557;51.698;3.942;2023-04-06T14:11:29;14.70;;;13.20;;
9222;SDS011;7557;51.698;3.942;2023-04-06T14:13:57;14.40;;;13.10;;
9222;SDS011;7557;51.698;3.942;2023-04-06T14:16:26;15.63;;;14.03;;
9222;SDS011;7557;51.698;3.942;2023-04-06T14:18:54;16.57;;;15.00;;
9222;SDS011;7557;51.698;3.942;2023-04-06T14:21:22;15.60;;;14.10;;
9222;SDS011;7557;51.698;3.942;2023-04-06T14:23:51;16.20;;;14.60;;
9222;SDS011;7557;51.698;3.942;2023-04-06T14:26:19;17.03;;;15.23;;
9222;SDS011;7557;51.698;3.942;2023-04-06T14:28:47;16.77;;;15.17;;
9222;SDS011;7557;51.698;3.942;2023-04-06T14:31:15;17.03;;;15.30;;
9222;SDS011;7557;51.698;3.942;2023-04-06T14:33:43;16.87;;;14.73;;
9222;SDS011;7557;51.698;3.942;2023-04-06T14:36:13;18.50;;;16.57;;
9222;SDS011;7557;51.698;3.942;2023-04-06T14:38:40;18.00;;;16.20;;
9222;SDS011;7557;51.698;3.942;2023-04-06T14:41:14;17.83;;;16.07;;
9222;SDS011;7557;51.698;3.942;2023-04-06T14:43:43;19.83;;;16.53;;
9222;SDS011;7557;51.698;3.942;2023-04-06T14:46:11;19.43;;;17.43;;
9222;SDS011;7557;51.698;3.942;2023-04-06T14:48:38;18.43;;;16.50;;
9222;SDS011;7557;51.698;3.942;2023-04-06T14:51:06;19.53;;;16.93;;
9222;SDS011;7557;51.698;3.942;2023-04-06T14:53:35;18.67;;;16.90;;
9222;SDS011;7557;51.698;3.942;2023-04-06T14:56:03;19.97;;;18.00;;
9222;SDS011;7557;51.698;3.942;2023-04-06T14:58:31;21.23;;;18.43;;